FW0790 Weather Reports


time (UTC)temp
C
wind
direction
speed
KPH
gust
KPH
rain 1hr
cm
rain 24hr
cm
rain mn
cm
humidity
%
barometer
mb
20191015121643 21 174 9.7 14.5 0.00 0.00 0.00 67 1003.0
20191015120104 21 215 8.0 16.1 0.00 0.00 0.00 65 1003.3
20191015114616 21 235 11.3 17.7 0.00 0.00 0.00 66 1003.4
20191015113019 21 230 11.3 16.1 0.00 0.00 0.00 66 1003.6
20191015111538 21 209 8.0 14.5 0.00 0.00 0.00 65 1003.7
20191015110015 22 198 6.4 17.7 0.00 0.00 0.00 65 1003.8
20191015104508 22 241 4.8 16.1 0.00 0.00 0.00 67 1003.9
20191015103011 22 294 4.8 16.1 0.00 0.00 0.00 68 1004.0
20191015101629 22 289 6.4 16.1 0.00 0.00 0.00 70 1004.0
20191015100232 21 319 1.6 6.4 0.00 0.00 0.00 69 1004.0
20191015094737 21 319 1.6 8.0 0.00 0.00 0.00 73 1004.1
20191015093154 20 331 1.6 4.8 0.00 0.00 0.00 74 1004.0
20191015091646 20 303 3.2 6.4 0.00 0.00 0.00 73 1004.1
20191015090207 19 298 1.6 8.0 0.00 0.00 0.00 77 1004.3
20191015084601 18 237 3.2 6.4 0.00 0.00 0.00 81 1004.6
20191015083103 17 236 0.0 8.0 0.00 0.00 0.00 80 1004.6
20191015081704 16 259 4.8 9.7 0.00 0.00 0.00 88 1004.7
20191015080201 15 180 1.6 3.2 0.00 0.00 0.00 91 1004.6
20191015074618 13 180 0.0 3.2 0.00 0.00 0.00 91 1004.6
20191015073038 13 180 0.0 3.2 0.00 0.00 0.00 91 1004.5
20191015071614 13 176 1.6 3.2 0.00 0.00 0.00 90 1004.4
20191015070144 12 176 0.0 0.0 0.00 0.00 0.00 90 1004.3
20191015064536 12 176 0.0 0.0 0.00 0.00 0.00 89 1004.4
20191015063051 12 176 0.0 0.0 0.00 0.00 0.00 88 1004.5
20191015061530 12 176 0.0 0.0 0.00 0.00 0.00 87 1004.6
20191015060057 13 176 0.0 3.2 0.00 0.00 0.00 84 1004.6
20191015054517 13 176 1.6 3.2 0.00 0.00 0.00 81 1004.8
20191015053012 14 176 0.0 1.6 0.00 0.00 0.00 81 1005.0
20191015051508 14 176 0.0 4.8 0.00 0.00 0.00 83 1005.2
20191015050019 15 173 0.0 6.4 0.00 0.00 0.00 81 1005.3
20191015044511 15 174 0.0 3.2 0.00 0.00 0.00 80 1005.3
20191015043219 15 173 0.0 6.4 0.00 0.00 0.00 80 1005.4
20191015041710 15 171 4.8 9.7 0.00 0.00 0.00 81 1005.5
20191015040143 15 171 3.2 9.7 0.00 0.00 0.00 80 1005.7
20191015034633 15 188 4.8 9.7 0.00 0.00 0.00 79 1005.8
20191015033140 15 188 3.2 8.0 0.00 0.00 0.00 79 1005.9
20191015031700 16 184 3.2 8.0 0.00 0.00 0.00 77 1005.8
20191015030100 16 136 1.6 6.4 0.00 0.00 0.00 76 1005.8
20191015024634 16 197 3.2 12.9 0.00 0.00 0.00 75 1006.0
20191015023057 16 166 3.2 12.9 0.00 0.00 0.00 75 1006.1
20191015021627 16 143 1.6 8.0 0.00 0.00 0.00 74 1006.1
20191015020127 16 112 3.2 9.7 0.00 0.00 0.00 74 1006.1
20191015014553 16 150 3.2 9.7 0.00 0.00 0.00 73 1006.4
20191015013107 17 167 3.2 6.4 0.00 0.00 0.00 71 1006.5
20191015011617 17 146 3.2 9.7 0.00 0.00 0.00 70 1006.5
20191015010049 18 174 1.6 11.3 0.00 0.00 0.00 68 1006.6
20191015004645 17 185 8.0 17.7 0.00 0.00 0.00 69 1006.8
20191015003106 17 223 1.6 6.4 0.00 0.00 0.00 69 1006.8
20191015001550 18 178 1.6 8.0 0.00 0.00 0.00 67 1006.8
20191015000123 18 155 1.6 8.0 0.00 0.00 0.00 66 1006.7
20191014234549 18 173 3.2 16.1 0.00 0.00 0.00 65 1006.8
20191014233031 18 185 6.4 14.5 0.00 0.00 0.00 66 1006.8
20191014231522 18 169 1.6 6.4 0.00 0.00 0.00 67 1007.0
20191014230118 18 144 4.8 12.9 0.00 0.00 0.00 67 1007.1
20191014224534 18 175 4.8 9.7 0.00 0.00 0.00 67 1007.1
20191014223154 18 153 3.2 6.4 0.00 0.00 0.00 66 1007.3
20191014221520 18 171 1.6 6.4 0.00 0.00 0.00 66 1007.3
20191014220013 18 175 1.6 6.4 0.00 0.00 0.00 66 1007.3
20191014214521 18 181 3.2 14.5 0.00 0.00 0.00 66 1007.2
20191014211532 18 171 1.6 8.0 0.00 0.00 0.00 67 1007.4
20191014210027 18 161 1.6 14.5 0.00 0.00 0.00 67 1007.5
20191014204536 18 146 1.6 11.3 0.00 0.00 0.00 69 1007.6
20191014203011 17 157 1.6 8.0 0.00 0.00 0.00 74 1007.8
20191014200007 14 153 4.8 12.9 0.00 0.00 0.00 90 1007.7
20191014194504 12 121 1.6 11.3 0.00 0.00 0.00 92 1007.8
20191014193002 11 76 3.2 9.7 0.00 0.00 0.00 90 1007.8
20191014191657 11 175 0.0 4.8 0.00 0.00 0.00 90 1007.8
20191014190359 12 175 0.0 3.2 0.00 0.00 0.00 89 1007.9
20191014184702 12 175 0.0 3.2 0.00 0.00 0.00 88 1007.9
20191014183205 12 175 1.6 3.2 0.00 0.00 0.00 86 1007.9
20191014181624 13 175 0.0 3.2 0.00 0.00 0.00 85 1008.0
20191014180153 13 175 0.0 3.2 0.00 0.00 0.00 84 1008.2
20191014174615 15 175 0.0 1.6 0.00 0.00 0.00 81 1008.3
20191014173059 15 175 0.0 1.6 0.00 0.00 0.00 80 1008.3
20191014171651 16 175 0.0 3.2 0.00 0.00 0.00 78 1008.5
20191014170256 16 175 1.6 4.8 0.00 0.00 0.00 76 1008.5
20191014164635 17 175 3.2 4.8 0.00 0.00 0.00 72 1008.5
20191014163226 19 176 0.0 1.6 0.00 0.00 0.00 67 1008.5
20191014161600 20 176 1.6 3.2 0.00 0.00 0.00 65 1008.6
20191014160108 21 176 0.0 3.2 0.00 0.00 0.00 61 1008.7
20191014154643 21 176 0.0 6.4 0.00 0.00 0.00 60 1008.8
20191014153112 21 167 4.8 11.3 0.00 0.00 0.00 57 1008.7
20191014151658 22 175 4.8 17.7 0.00 0.00 0.00 57 1008.9
20191014150116 22 179 3.2 12.9 0.00 0.00 0.00 56 1008.9
20191014144616 22 169 4.8 16.1 0.00 0.00 0.00 55 1009.0
20191014143048 22 170 6.4 16.1 0.00 0.00 0.00 54 1009.1
20191014141611 22 173 4.8 19.3 0.00 0.00 0.00 54 1009.3
20191014140112 22 198 6.4 17.7 0.00 0.00 0.00 54 1009.5
20191014134548 22 189 6.4 14.5 0.00 0.00 0.00 54 1009.7
20191014133035 22 175 6.4 17.7 0.00 0.00 0.00 52 1009.7
20191014131557 22 248 6.4 17.7 0.00 0.00 0.00 52 1009.7
20191014130033 22 261 12.9 22.5 0.00 0.00 0.00 52 1009.7
20191014124554 22 207 8.0 20.9 0.00 0.00 0.00 50 1009.9
20191014123029 22 163 8.0 19.3 0.00 0.00 0.00 58 1010.1